createdAt,value
2019-05-07T00:02:17.496Z,82.13
2019-05-07T00:04:44.963Z,82.03
2019-05-07T00:07:13.054Z,82.10
2019-05-07T00:09:39.927Z,82.32
2019-05-07T00:12:07.355Z,82.08
2019-05-07T00:14:34.906Z,81.82
2019-05-07T00:17:04.425Z,82.18
2019-05-07T00:19:32.393Z,82.35
2019-05-07T00:21:58.378Z,82.89
2019-05-07T00:24:25.972Z,83.35
2019-05-07T00:26:53.463Z,82.94
2019-05-07T00:29:22.388Z,82.74
2019-05-07T00:31:48.367Z,83.16
2019-05-07T00:34:15.823Z,82.58
2019-05-07T00:36:44.612Z,81.89
2019-05-07T00:39:12.405Z,81.66
2019-05-07T00:41:42.877Z,81.09
2019-05-07T00:44:10.391Z,81.23
2019-05-07T00:46:37.846Z,81.81
2019-05-07T00:49:05.278Z,81.90
2019-05-07T00:51:33.707Z,82.13
2019-05-07T00:54:02.841Z,81.53
2019-05-07T00:56:29.165Z,81.74
2019-05-07T00:58:56.631Z,81.46
2019-05-07T01:01:24.063Z,81.42
2019-05-07T01:03:53.334Z,81.85
2019-05-07T01:06:18.974Z,82.61
2019-05-07T01:08:46.439Z,82.55
2019-05-07T01:11:13.871Z,81.83
2019-05-07T01:13:43.132Z,80.88
2019-05-07T01:16:08.792Z,81.13
2019-05-07T01:18:36.265Z,80.38
2019-05-07T01:21:03.706Z,81.03
2019-05-07T01:23:32.324Z,81.53
2019-05-07T01:25:59.710Z,81.85
2019-05-07T01:28:27.205Z,81.50
2019-05-07T01:30:54.658Z,81.66
2019-05-07T01:33:22.765Z,81.92
2019-05-07T01:35:55.664Z,81.55
2019-05-07T01:38:23.092Z,81.15
2019-05-07T01:40:52.082Z,80.76
2019-05-07T01:43:17.980Z,80.51
2019-05-07T01:45:49.480Z,80.28
2019-05-07T01:48:12.875Z,79.79
2019-05-07T01:50:42.798Z,79.48
2019-05-07T01:53:07.830Z,79.27
2019-05-07T01:55:35.256Z,79.26
2019-05-07T01:58:04.738Z,79.29
2019-05-07T02:00:30.224Z,79.00
2019-05-07T02:02:59.501Z,78.19
2019-05-07T02:05:35.816Z,78.41
2019-05-07T02:08:04.200Z,79.12
2019-05-07T02:10:35.127Z,79.15
2019-05-07T02:13:03.028Z,78.92
2019-05-07T02:15:32.292Z,79.17
2019-05-07T02:17:58.227Z,78.24
2019-05-07T02:20:25.712Z,77.92
2019-05-07T02:22:53.363Z,77.67
2019-05-07T02:25:22.122Z,77.81
2019-05-07T02:27:48.181Z,77.80
2019-05-07T02:30:15.644Z,78.53
2019-05-07T02:32:43.572Z,79.35
2019-05-07T02:35:13.614Z,80.29
2019-05-07T02:37:48.444Z,80.92
2019-05-07T02:40:09.414Z,81.20
2019-05-07T02:42:36.866Z,81.70
2019-05-07T02:45:18.155Z,81.98
2019-05-07T02:47:45.627Z,81.52
2019-05-07T02:50:27.963Z,81.40
2019-05-07T02:52:57.799Z,81.79
2019-05-07T02:55:33.441Z,82.61
2019-05-07T02:57:58.334Z,82.17
2019-05-07T03:00:25.778Z,81.96
2019-05-07T03:02:53.474Z,82.40
2019-05-07T03:05:22.948Z,82.39
2019-05-07T03:07:49.347Z,82.54
2019-05-07T03:10:16.891Z,82.43
2019-05-07T03:12:44.334Z,82.87
2019-05-07T03:15:13.235Z,82.83
2019-05-07T03:17:39.285Z,83.32
2019-05-07T03:20:06.750Z,83.57
2019-05-07T03:22:34.498Z,83.69
2019-05-07T03:25:05.530Z,83.87
2019-05-07T03:27:34.052Z,83.22
2019-05-07T03:30:04.208Z,83.67
2019-05-07T03:32:29.841Z,84.54
2019-05-07T03:34:59.010Z,83.92
2019-05-07T03:37:26.460Z,84.21
2019-05-07T03:39:53.989Z,83.52
2019-05-07T03:42:23.626Z,83.40
2019-05-07T03:44:48.945Z,83.45
2019-05-07T03:47:16.779Z,83.93
2019-05-07T03:49:44.226Z,83.89
2019-05-07T03:52:13.694Z,83.48
2019-05-07T03:54:39.120Z,82.51
2019-05-07T03:57:11.419Z,81.51
2019-05-07T03:59:34.499Z,80.65
2019-05-07T04:02:03.317Z,80.65
2019-05-07T04:04:29.064Z,80.07
2019-05-07T04:06:58.741Z,79.47
2019-05-07T04:09:26.232Z,79.95
2019-05-07T04:11:53.670Z,80.78
2019-05-07T04:14:23.174Z,82.11
2019-05-07T04:16:48.609Z,83.12
2019-05-07T04:19:16.137Z,83.00
2019-05-07T04:21:43.646Z,83.25
2019-05-07T04:24:25.942Z,83.11
2019-05-07T04:26:59.025Z,83.13
2019-05-07T04:29:26.511Z,82.99
2019-05-07T04:31:53.961Z,82.64
2019-05-07T04:34:23.769Z,83.01
2019-05-07T04:36:53.225Z,82.80
2019-05-07T04:39:17.851Z,81.97
2019-05-07T04:41:45.294Z,81.96
2019-05-07T04:44:14.090Z,81.20
2019-05-07T04:46:43.764Z,81.09
2019-05-07T04:49:07.695Z,80.47
2019-05-07T04:51:35.157Z,80.35
2019-05-07T04:54:03.613Z,81.00
2019-05-07T04:56:30.091Z,80.71
2019-05-07T04:58:57.584Z,80.09
2019-05-07T05:01:25.031Z,79.28
2019-05-07T05:03:54.105Z,79.16
2019-05-07T05:06:20.258Z,79.36
2019-05-07T05:08:47.718Z,79.31
2019-05-07T05:11:15.194Z,79.05
2019-05-07T05:13:44.468Z,78.76
2019-05-07T05:16:15.780Z,78.78
2019-05-07T05:21:16.804Z,78.46
2019-05-07T05:23:45.115Z,78.25
2019-05-07T05:26:12.647Z,78.15
2019-05-07T05:28:41.887Z,78.53
2019-05-07T05:31:07.505Z,79.25
2019-05-07T05:33:34.964Z,80.13
2019-05-07T05:36:03.071Z,80.58
2019-05-07T05:38:29.857Z,81.53
2019-05-07T05:40:57.292Z,81.32
2019-05-07T05:43:26.025Z,80.66
2019-05-07T05:45:54.256Z,80.30
2019-05-07T05:48:22.409Z,79.59
2019-05-07T05:50:49.206Z,79.12
2019-05-07T05:53:27.447Z,78.87
2019-05-07T05:55:54.921Z,78.57
2019-05-07T06:01:14.365Z,78.99
2019-05-07T06:04:03.046Z,78.91
2019-05-07T06:06:45.005Z,78.40
2019-05-07T06:09:18.866Z,79.47
2019-05-07T06:11:46.301Z,79.74
2019-05-07T06:14:18.597Z,79.02
2019-05-07T06:16:46.287Z,78.44
2019-05-07T06:19:16.191Z,77.29
2019-05-07T06:21:49.174Z,77.61
2019-05-07T06:24:18.458Z,76.63
2019-05-07T06:26:46.069Z,76.74
2019-05-07T06:29:13.549Z,76.58
2019-05-07T06:31:42.222Z,77.03
2019-05-07T06:34:08.809Z,77.06
2019-05-07T06:36:36.269Z,76.67
2019-05-07T06:39:22.150Z,76.43
2019-05-07T06:41:54.291Z,76.41
2019-05-07T06:44:22.377Z,77.08
2019-05-07T06:46:49.383Z,76.66
2019-05-07T06:49:16.803Z,76.04
2019-05-07T06:51:44.248Z,75.62
2019-05-07T06:54:13.014Z,75.78
2019-05-07T06:56:39.302Z,75.25
2019-05-07T06:59:06.779Z,75.08
2019-05-07T07:01:37.619Z,75.13
2019-05-07T07:04:06.870Z,74.92
2019-05-07T07:06:39.882Z,75.03
2019-05-07T07:09:09.157Z,75.03
2019-05-07T07:11:36.659Z,74.37
2019-05-07T07:14:04.114Z,73.95
2019-05-07T07:16:32.599Z,74.12
2019-05-07T07:18:59.112Z,74.15
2019-05-07T07:21:26.687Z,74.18
2019-05-07T07:23:54.146Z,72.47
2019-05-07T07:26:22.201Z,72.49
2019-05-07T07:28:49.105Z,72.66
2019-05-07T07:31:26.471Z,71.60
2019-05-07T07:33:53.915Z,71.80
2019-05-07T07:36:22.565Z,70.52
2019-05-07T07:38:48.929Z,69.75
2019-05-07T07:41:32.752Z,68.74
2019-05-07T07:44:02.082Z,67.46
2019-05-07T07:46:28.403Z,66.98
2019-05-07T07:49:06.743Z,67.55
2019-05-07T07:51:37.239Z,67.16
2019-05-07T07:53:52.020Z,66.43
2019-05-07T07:56:23.841Z,68.35
2019-05-07T07:58:52.655Z,68.96
2019-05-07T08:01:37.960Z,64.39
2019-05-07T08:04:05.413Z,65.65
2019-05-07T08:06:32.835Z,64.77
2019-05-07T08:09:02.141Z,65.23
2019-05-07T08:11:27.743Z,65.49
2019-05-07T08:13:55.234Z,62.97
2019-05-07T08:16:22.665Z,62.98
2019-05-07T08:18:52.158Z,63.42
2019-05-07T08:21:17.640Z,63.30
2019-05-07T08:23:45.135Z,62.23
2019-05-07T08:26:12.785Z,63.99
2019-05-07T08:28:41.918Z,63.79
2019-05-07T08:31:07.589Z,62.91
2019-05-07T08:33:35.490Z,63.69
2019-05-07T08:36:11.977Z,61.70
2019-05-07T08:38:43.698Z,64.52
2019-05-07T08:41:12.031Z,64.35
2019-05-07T08:43:39.155Z,65.42
2019-05-07T08:46:12.297Z,64.48
2019-05-07T08:48:39.791Z,63.39
2019-05-07T08:51:07.245Z,62.05
2019-05-07T08:53:34.736Z,62.38
2019-05-07T08:56:03.215Z,59.99
2019-05-07T08:58:31.592Z,60.54
2019-05-07T09:00:57.351Z,60.05
2019-05-07T09:03:32.323Z,61.00
2019-05-07T09:05:57.986Z,61.88
2019-05-07T09:08:25.462Z,60.98
2019-05-07T09:10:52.952Z,61.09
2019-05-07T09:13:22.545Z,62.40
2019-05-07T09:15:47.884Z,62.27
2019-05-07T09:18:15.337Z,61.36
2019-05-07T09:20:42.898Z,60.82
2019-05-07T09:23:12.072Z,61.33
2019-05-07T09:25:37.963Z,60.74
2019-05-07T09:28:05.456Z,60.98
2019-05-07T09:30:38.491Z,61.33
2019-05-07T09:33:07.429Z,60.52
2019-05-07T09:35:34.938Z,58.88
2019-05-07T09:38:03.175Z,60.41
2019-05-07T09:40:31.889Z,61.66
2019-05-07T09:42:57.361Z,58.11
2019-05-07T09:45:24.810Z,58.01
2019-05-07T09:47:52.369Z,59.49
2019-05-07T09:50:22.021Z,57.78
2019-05-07T09:52:47.735Z,58.92
2019-05-07T09:55:17.550Z,59.80
2019-05-07T09:57:42.700Z,59.63
2019-05-07T10:00:12.144Z,60.03
2019-05-07T10:02:37.563Z,58.68
2019-05-07T10:05:05.007Z,58.68
2019-05-07T10:07:32.670Z,59.51
2019-05-07T10:09:59.931Z,59.78
2019-05-07T10:12:32.912Z,58.58
2019-05-07T10:14:58.697Z,59.47
2019-05-07T10:17:27.092Z,59.83
2019-05-07T10:19:55.488Z,60.64
2019-05-07T10:22:23.005Z,61.28
2019-05-07T10:24:52.210Z,60.87
2019-05-07T10:27:18.977Z,57.99
2019-05-07T10:29:46.425Z,58.88
2019-05-07T10:32:13.867Z,59.48
2019-05-07T10:34:42.238Z,58.86
2019-05-07T10:37:08.799Z,58.82
2019-05-07T10:39:36.278Z,56.88
2019-05-07T10:42:03.725Z,57.91
2019-05-07T10:44:32.125Z,56.49
2019-05-07T10:47:04.925Z,57.76
2019-05-07T10:49:36.910Z,56.95
2019-05-07T10:52:04.363Z,57.46
2019-05-07T10:54:31.811Z,53.82
2019-05-07T10:56:59.270Z,54.56
2019-05-07T10:59:26.721Z,56.57
2019-05-07T11:01:54.618Z,56.69
2019-05-07T11:04:22.115Z,54.84
2019-05-07T11:06:49.564Z,56.08
2019-05-07T11:09:17.061Z,54.69
2019-05-07T11:11:44.514Z,55.06
2019-05-07T11:14:12.301Z,55.92
2019-05-07T11:16:52.051Z,56.04
2019-05-07T11:19:19.016Z,57.65
2019-05-07T11:21:45.271Z,59.42
2019-05-07T11:24:12.813Z,60.19
2019-05-07T11:26:42.005Z,63.36
2019-05-07T11:29:07.744Z,65.98
2019-05-07T11:31:35.195Z,65.90
2019-05-07T11:34:03.139Z,68.17
2019-05-07T11:36:31.954Z,69.25
2019-05-07T11:38:58.087Z,69.11
2019-05-07T11:41:29.313Z,67.91
2019-05-07T11:43:56.783Z,67.94
2019-05-07T11:46:24.233Z,68.32
2019-05-07T11:48:51.719Z,67.62
2019-05-07T11:51:38.084Z,67.38
2019-05-07T11:54:07.453Z,66.25
2019-05-07T11:56:34.871Z,64.72
2019-05-07T11:59:02.821Z,64.36
2019-05-07T12:01:41.565Z,63.34
2019-05-07T12:03:57.603Z,63.72
2019-05-07T12:06:25.115Z,62.53
2019-05-07T12:08:54.091Z,61.81
2019-05-07T12:11:21.913Z,62.44
2019-05-07T12:13:49.324Z,62.44
2019-05-07T12:16:16.795Z,62.11
2019-05-07T12:18:44.253Z,62.04
2019-05-07T12:21:20.214Z,60.88
2019-05-07T12:23:39.253Z,59.13
2019-05-07T12:26:06.724Z,58.56
2019-05-07T12:28:34.199Z,60.28
2019-05-07T12:31:02.055Z,57.74
2019-05-07T12:33:44.399Z,57.68
2019-05-07T12:36:12.571Z,58.99
2019-05-07T12:38:39.362Z,59.98
2019-05-07T12:41:12.847Z,54.53
2019-05-07T12:43:39.846Z,53.86
2019-05-07T12:46:07.293Z,56.08
2019-05-07T12:48:34.710Z,56.04
2019-05-07T12:51:02.155Z,55.60
2019-05-07T12:53:35.138Z,57.42
2019-05-07T12:56:02.598Z,55.83
2019-05-07T12:58:32.137Z,52.58
2019-05-07T13:00:58.993Z,52.76
2019-05-07T13:03:32.414Z,54.75
2019-05-07T13:05:59.876Z,54.51
2019-05-07T13:08:27.327Z,55.28
2019-05-07T13:10:54.778Z,54.17
2019-05-07T13:13:22.234Z,50.87
2019-05-07T13:15:51.664Z,52.48
2019-05-07T13:18:17.183Z,49.14
2019-05-07T13:20:44.622Z,49.90
2019-05-07T13:23:12.089Z,49.74
2019-05-07T13:25:39.503Z,50.70
2019-05-07T13:28:06.970Z,51.44
2019-05-07T13:30:34.389Z,50.69
2019-05-07T13:33:02.076Z,49.27
2019-05-07T13:35:29.321Z,49.56
2019-05-07T13:38:11.818Z,50.02
2019-05-07T13:40:57.006Z,50.17
2019-05-07T13:43:26.903Z,50.15
2019-05-07T13:46:12.132Z,51.17
2019-05-07T13:48:38.648Z,50.97
2019-05-07T13:51:06.112Z,51.51
2019-05-07T13:53:33.638Z,49.33
2019-05-07T13:56:02.334Z,48.38
2019-05-07T13:58:28.641Z,49.45
2019-05-07T14:01:08.827Z,46.73
2019-05-07T14:03:36.287Z,46.66
2019-05-07T14:06:04.561Z,47.75
2019-05-07T14:08:32.062Z,48.61
2019-05-07T14:10:58.671Z,48.33
2019-05-07T14:13:26.206Z,47.95
2019-05-07T14:16:12.088Z,48.85
2019-05-07T14:18:37.923Z,49.03
2019-05-07T14:21:05.496Z,50.05
2019-05-07T14:23:33.077Z,49.13
2019-05-07T14:26:01.961Z,48.44
2019-05-07T14:28:27.976Z,49.98
2019-05-07T14:30:55.459Z,50.19
2019-05-07T14:33:28.495Z,48.68
2019-05-07T14:35:58.454Z,49.27
2019-05-07T14:38:25.929Z,49.06
2019-05-07T14:40:53.377Z,49.04
2019-05-07T14:43:22.011Z,50.52
2019-05-07T14:45:49.581Z,48.47
2019-05-07T14:48:17.072Z,48.53
2019-05-07T14:50:44.985Z,48.01
2019-05-07T14:53:12.510Z,47.77
2019-05-07T14:55:41.798Z,48.44
2019-05-07T14:58:07.511Z,49.45
2019-05-07T15:00:35.380Z,49.21
2019-05-07T15:03:02.454Z,49.73
2019-05-07T15:05:29.881Z,48.99
2019-05-07T15:08:08.336Z,48.06
2019-05-07T15:10:24.825Z,47.51
2019-05-07T15:15:27.954Z,48.95
2019-05-07T15:17:56.843Z,49.37
2019-05-07T15:20:24.364Z,49.41
2019-05-07T15:22:53.798Z,50.41
2019-05-07T15:25:22.725Z,50.14
2019-05-07T15:27:49.655Z,48.50
2019-05-07T15:30:17.114Z,47.97
2019-05-07T15:32:44.535Z,48.11
2019-05-07T15:35:12.598Z,49.74
2019-05-07T15:37:39.512Z,48.54
2019-05-07T15:40:06.951Z,49.56
2019-05-07T15:42:34.402Z,48.94
2019-05-07T15:45:02.262Z,47.94
2019-05-07T15:47:31.663Z,48.51
2019-05-07T15:49:57.581Z,49.41
2019-05-07T15:52:32.593Z,49.12
2019-05-07T15:54:58.114Z,48.35
2019-05-07T15:57:26.062Z,47.99
2019-05-07T15:59:53.479Z,48.19
2019-05-07T16:02:24.811Z,50.07
2019-05-07T16:04:52.293Z,50.46
2019-05-07T16:07:22.501Z,49.59
2019-05-07T16:09:47.908Z,48.74
2019-05-07T16:12:15.376Z,48.24
2019-05-07T16:14:42.878Z,49.30
2019-05-07T16:17:10.376Z,49.15
2019-05-07T16:19:37.814Z,49.32
2019-05-07T16:22:05.253Z,48.96
2019-05-07T16:24:32.698Z,49.01
2019-05-07T16:27:02.623Z,47.46
2019-05-07T16:29:27.593Z,47.43
2019-05-07T16:31:55.026Z,46.99
2019-05-07T16:34:24.590Z,47.23
2019-05-07T16:36:49.967Z,46.57
2019-05-07T16:39:17.411Z,46.23
2019-05-07T16:41:44.869Z,46.31
2019-05-07T16:44:12.488Z,46.00
2019-05-07T16:46:41.951Z,46.80
2019-05-07T16:49:07.219Z,44.84
2019-05-07T16:51:34.650Z,46.38
2019-05-07T16:54:03.416Z,46.00
2019-05-07T16:56:29.565Z,47.18
2019-05-07T16:58:57.901Z,47.73
2019-05-07T17:01:25.361Z,47.87
2019-05-07T17:03:56.331Z,48.40
2019-05-07T17:06:25.138Z,47.25
2019-05-07T17:09:04.324Z,48.98
2019-05-07T17:11:32.200Z,49.81
2019-05-07T17:13:59.261Z,49.19
2019-05-07T17:16:26.724Z,49.60
2019-05-07T17:18:54.148Z,49.12
2019-05-07T17:21:21.914Z,49.62
2019-05-07T17:23:49.354Z,50.30
2019-05-07T17:26:16.789Z,50.79
2019-05-07T17:28:44.251Z,50.97
2019-05-07T17:31:12.427Z,50.71
2019-05-07T17:33:39.136Z,50.91
2019-05-07T17:36:06.551Z,51.41
2019-05-07T17:38:34.029Z,50.92
2019-05-07T17:41:10.880Z,51.19
2019-05-07T17:43:28.964Z,50.90
2019-05-07T17:45:56.484Z,51.28
2019-05-07T17:48:23.921Z,52.48
2019-05-07T17:50:52.286Z,52.49
2019-05-07T17:53:19.758Z,52.94
2019-05-07T17:55:47.211Z,52.32
2019-05-07T17:58:16.066Z,49.03
2019-05-07T18:00:43.506Z,49.66
2019-05-07T18:03:13.261Z,51.21
2019-05-07T18:05:42.423Z,52.22
2019-05-07T18:08:08.224Z,52.30
2019-05-07T18:10:35.663Z,51.75
2019-05-07T18:13:03.114Z,52.47
2019-05-07T18:15:32.275Z,52.21
2019-05-07T18:18:02.859Z,52.84
2019-05-07T18:20:27.861Z,53.11
2019-05-07T18:22:55.323Z,50.78
2019-05-07T18:25:23.089Z,52.76
2019-05-07T18:27:52.558Z,53.77
2019-05-07T18:30:18.027Z,53.46
2019-05-07T18:32:47.246Z,53.27
2019-05-07T18:35:14.676Z,53.86
2019-05-07T18:37:47.807Z,53.65
2019-05-07T18:40:15.245Z,53.67
2019-05-07T18:42:42.686Z,53.36
2019-05-07T18:45:12.319Z,53.80
2019-05-07T18:47:37.640Z,54.04
2019-05-07T18:50:05.079Z,54.30
2019-05-07T18:52:32.538Z,53.40
2019-05-07T18:54:59.989Z,54.12
2019-05-07T18:57:27.543Z,54.26
2019-05-07T18:59:55.004Z,54.43
2019-05-07T19:02:22.648Z,54.51
2019-05-07T19:04:51.951Z,54.47
2019-05-07T19:07:17.325Z,54.58
2019-05-07T19:09:47.649Z,54.47
2019-05-07T19:12:13.049Z,54.44
2019-05-07T19:14:39.704Z,54.62
2019-05-07T19:17:07.167Z,54.76
2019-05-07T19:19:34.604Z,54.63
2019-05-07T19:22:02.231Z,55.22
2019-05-07T19:24:42.296Z,54.74
2019-05-07T19:26:57.007Z,55.23
2019-05-07T19:29:24.549Z,55.40
2019-05-07T19:31:52.611Z,55.51
2019-05-07T19:34:21.818Z,55.50
2019-05-07T19:36:47.864Z,55.59
2019-05-07T19:39:15.309Z,55.74
2019-05-07T19:41:43.087Z,56.32
2019-05-07T19:44:12.546Z,56.40
2019-05-07T19:46:37.734Z,56.62
2019-05-07T19:49:07.142Z,56.80
2019-05-07T19:51:32.615Z,57.11
2019-05-07T19:54:02.026Z,57.04
2019-05-07T19:56:28.277Z,56.62
2019-05-07T19:58:55.756Z,56.33
2019-05-07T20:01:23.970Z,57.03
2019-05-07T20:03:52.884Z,56.63
2019-05-07T20:06:18.908Z,56.55
2019-05-07T20:08:46.341Z,56.48
2019-05-07T20:11:14.395Z,56.43
2019-05-07T20:13:43.755Z,56.57
2019-05-07T20:16:24.124Z,56.10
2019-05-07T20:18:52.538Z,56.53
2019-05-07T20:21:19.811Z,56.84
2019-05-07T20:23:47.540Z,56.92
2019-05-07T20:26:14.979Z,57.26
2019-05-07T20:28:42.495Z,57.72
2019-05-07T20:33:43.736Z,58.06
2019-05-07T20:36:11.198Z,58.28
2019-05-07T20:38:38.631Z,58.15
2019-05-07T20:41:06.118Z,58.18
2019-05-07T20:43:33.585Z,57.64
2019-05-07T20:46:02.627Z,57.79
2019-05-07T20:48:28.511Z,57.93
2019-05-07T20:50:56.658Z,57.49
2019-05-07T20:53:29.915Z,57.18
2019-05-07T20:55:58.678Z,57.30
2019-05-07T20:58:27.086Z,57.11
2019-05-07T21:00:54.617Z,57.44
2019-05-07T21:03:23.808Z,57.37
2019-05-07T21:05:52.898Z,57.28
2019-05-07T21:08:19.835Z,57.70
2019-05-07T21:10:47.553Z,58.01
2019-05-07T21:13:27.443Z,58.32
2019-05-07T21:15:42.847Z,58.53
2019-05-07T21:18:12.161Z,58.97
2019-05-07T21:20:37.805Z,58.70
2019-05-07T21:23:05.275Z,58.71
2019-05-07T21:25:42.672Z,58.54
2019-05-07T21:28:02.101Z,58.93
2019-05-07T21:30:27.861Z,58.48
2019-05-07T21:32:55.569Z,58.97
2019-05-07T21:35:23.040Z,58.97
2019-05-07T21:37:52.413Z,58.95
2019-05-07T21:40:18.537Z,59.57
2019-05-07T21:42:45.973Z,59.49
2019-05-07T21:45:13.826Z,59.17
2019-05-07T21:47:41.364Z,59.15
2019-05-07T21:50:08.787Z,59.05
2019-05-07T21:52:39.360Z,59.08
2019-05-07T21:55:07.619Z,59.17
2019-05-07T21:57:40.572Z,59.04
2019-05-07T22:00:23.692Z,59.09
2019-05-07T22:02:52.566Z,58.93
2019-05-07T22:05:18.615Z,59.20
2019-05-07T22:07:46.069Z,59.30
2019-05-07T22:10:13.507Z,59.37
2019-05-07T22:12:40.958Z,59.38
2019-05-07T22:15:08.393Z,59.40
2019-05-07T22:17:35.830Z,59.65
2019-05-07T22:20:03.280Z,60.01
2019-05-07T22:22:32.056Z,60.38
2019-05-07T22:24:58.630Z,60.21
2019-05-07T22:27:26.069Z,59.99
2019-05-07T22:29:53.532Z,60.14
2019-05-07T22:32:37.046Z,60.00
2019-05-07T22:35:14.478Z,60.36
2019-05-07T22:37:41.899Z,60.47
2019-05-07T22:40:09.374Z,59.87
2019-05-07T22:42:36.815Z,60.11
2019-05-07T22:45:04.274Z,60.07
2019-05-07T22:47:32.600Z,60.59
2019-05-07T22:49:59.198Z,61.44
2019-05-07T22:52:26.649Z,60.88
2019-05-07T22:54:54.118Z,60.98
2019-05-07T22:57:24.969Z,60.82
2019-05-07T22:59:52.412Z,60.51
2019-05-07T23:02:22.641Z,60.51
2019-05-07T23:04:47.859Z,60.69
2019-05-07T23:07:15.327Z,60.80
2019-05-07T23:09:44.928Z,61.29
2019-05-07T23:12:12.326Z,60.78
2019-05-07T23:14:37.716Z,61.69
2019-05-07T23:17:05.170Z,61.41
2019-05-07T23:19:32.822Z,61.23
2019-05-07T23:22:00.131Z,61.17
2019-05-07T23:24:27.599Z,60.99
2019-05-07T23:26:55.034Z,61.08
2019-05-07T23:29:22.824Z,60.70
2019-05-07T23:31:49.990Z,60.64
2019-05-07T23:34:17.465Z,60.55
2019-05-07T23:36:44.889Z,60.54
2019-05-07T23:39:12.350Z,60.65
2019-05-07T23:41:42.625Z,60.34
2019-05-07T23:44:12.210Z,60.81
2019-05-07T23:46:37.508Z,60.78
2019-05-07T23:49:04.975Z,60.68
2019-05-07T23:51:32.392Z,60.81
2019-05-07T23:54:02.705Z,60.67
2019-05-07T23:56:27.844Z,60.72
2019-05-07T23:58:55.305Z,60.88
